If you wish to contribute or participate in the discussions about articles you are invited to join SKYbrary as a registered user

 Actions

Zahedan Airport

From SKYbrary Wiki

OITZ
Airport
ICAO: OITZ – IATA: ZAH
Summary
Name Zahedan Airport
Region Middle East
Territory Iran IR.gif
Location Zahedan, Sistan and Baluchistan Province
Serving Zahedan
Elevation 1,391.107 m
4,564 ft1,391.107 m
Coordinates 29° 28' 32.42" N, 60° 54' 2.27" E
Runways
Designator Length Width Surface ROPS
12/30 2999 m9,839.239 ft
45 m147.638 ft
ASP /


METAR
Observation OITZ 161400Z 22017KT 9999 FEW030CB SCT035 SCT090 16/M01 Q1013
Station Zanjan
Date/Time 16 April 2019 14:00:00
Wind direction 220°
Wind speed 17 kts
Lowest cloud amount few clouds
Temperature 16°C
Dew point
Humidity 31%
QNH 1013 hPa
Weather condition n/a

Airport on the eastern side of the city of Zahedan, Iran, close to the Afghan border.

Climatology

Hot Desert climate (Köppen climate classification BWh). Hot summers and cool winters.

Maps

Terrain

Loading map...

Airport Layout

Loading map...


Accidents & Serious Incidents at or in vicinity of OITZ

None on SKYbrary